Pella Municipal Airport
Tuesday 2:55 PM
Weather Sunny
VFR
Temperature 53°
Dew Point 31°
Feels Like 53°
Relative Humidity 42
%
Visibility 10
mi
Pressure 994.2
mb
Wind Direction NW
Wind Speed 26
mph
Last Hour Precip 0.00
"
KPEA 272055Z AUTO 32023G30KT 10SM CLR 12/M01 A2936 RMK AO2 T01191008

Recent Observations

Time Present Weather Temp DP Feels RH% Vsby Pressure Ceiling Direction Speed Gust 1h Precip
2:55PM
VFR
53° 31° 53° 42
%
10
mi
994.2
mb
None NW 26
mph
35
mph
0.00"
KPEA 272055Z AUTO 32023G30KT 10SM CLR 12/M01 A2936 RMK AO2 T01191008
2:35PM
VFR
60° 34° 60° 37
%
10
mi
993.2
mb
None NW 17
mph
30
mph
0.00"
KPEA 272035Z AUTO 32015G26KT 10SM CLR 16/01 A2933 RMK AO2 T01580011
2:15PM
VFR
62° 35° 62° 37
%
10
mi
992.6
mb
None NW 18
mph
26
mph
0.00"
KPEA 272015Z AUTO 31016G23KT 10SM CLR 17/02 A2931 RMK AO2 T01670018
1:55PM
VFR
64° 35° 64° 33
%
10
mi
992.6
mb
None NW 20
mph
24
mph
0.00"
KPEA 271955Z AUTO 31017G21KT 10SM CLR 18/01 A2931 RMK AO2 T01770015
1:35PM
VFR
66° 33° 66° 29
%
10
mi
992.2
mb
None NW 20
mph
28
mph
0.00"
KPEA 271935Z AUTO 31017G24KT 10SM CLR 19/01 A2930 RMK AO2 T01870006
1:15PM
VFR
66° 31° 66° 26
%
10
mi
992.2
mb
None WNW 20
mph
29
mph
0.00"
KPEA 271915Z AUTO 30017G25KT 10SM CLR 19/M01 A2930 RMK AO2 T01911007
12:55PM
VFR
69° 30° 69° 24
%
10
mi
992.2
mb
None NW 14
mph
0.00"
KPEA 271855Z AUTO 32012KT 10SM CLR 20/M01 A2930 RMK AO2 T02031011
12:35PM
VFR
69° 30° 69° 24
%
10
mi
992.2
mb
None NNW 12
mph
0.00"
KPEA 271835Z AUTO 34010KT 10SM CLR 20/M01 A2930 RMK AO2 T02031011
12:15PM
VFR
67° 30° 67° 25
%
10
mi
992.6
mb
None NW 10
mph
0.00"
KPEA 271815Z AUTO 32009KT 10SM CLR 19/M01 A2931 RMK AO2 T01951013
11:55AM
VFR
66° 29° 66° 25
%
10
mi
993.2
mb
None NNW 9
mph
0.00"
KPEA 271755Z AUTO 33008KT 10SM CLR 19/M02 A2933 RMK AO2 T01861017 10190 20067
11:35AM
VFR
65° 29° 65° 26
%
10
mi
993.2
mb
None NNW 9
mph
0.00"
KPEA 271735Z AUTO 34008KT 10SM CLR 18/M02 A2933 RMK AO2 T01811018
11:15AM
VFR
65° 29° 65° 26
%
10
mi
993.6
mb
None NW 9
mph
0.00"
KPEA 271715Z AUTO 31008KT 10SM CLR 18/M02 A2934 RMK AO2 T01811019
10:55AM
VFR
65° 28° 65° 25
%
10
mi
993.6
mb
None NW 9
mph
0.00"
KPEA 271655Z AUTO 31008KT 10SM CLR 18/M02 A2934 RMK AO2 T01851020
10:35AM
VFR
64° 28° 64° 26
%
10
mi
993.6
mb
None WNW 9
mph
0.00"
KPEA 271635Z AUTO 30008KT 10SM CLR 18/M02 A2934 RMK AO2 T01781021
10:15AM
VFR
63° 27° 63° 26
%
10
mi
993.9
mb
None WNW 8
mph
0.00"
KPEA 271615Z AUTO 29007KT 10SM CLR 17/M03 A2935 RMK AO2 T01711027
9:55AM
VFR
63° 27° 63° 25
%
10
mi
994.2
mb
None WSW 10
mph
0.00"
KPEA 271555Z AUTO 25009KT 10SM CLR 17/M03 A2936 RMK AO2 T01701030
9:35AM
VFR
60° 33° 60° 37
%
10
mi
994.2
mb
None SW 6
mph
0.00"
KPEA 271535Z AUTO 23005KT 10SM CLR 15/01 A2936 RMK AO2 T01530008
9:15AM
VFR
57° 34° 57° 42
%
10
mi
993.9
mb
None SSW 6
mph
0.00"
KPEA 271515Z AUTO 20005KT 10SM CLR 14/01 A2935 RMK AO2 T01390013
8:55AM
VFR
54° 33° 54° 45
%
10
mi
993.9
mb
None SSW 6
mph
0.00"
KPEA 271455Z AUTO 20005KT 10SM CLR 12/01 A2935 RMK AO2 T01240008
8:35AM
VFR
52° 34° 52° 50
%
10
mi
994.2
mb
None SSW 5
mph
0.00"
KPEA 271435Z AUTO 21004KT 10SM CLR 11/01 A2936 RMK AO2 T01090010
Click here to show this page without METARs/TAFs included